createdAt,value
2022-07-28T00:00:05.869Z,102101.97
2022-07-28T00:02:35.304Z,102094.34
2022-07-28T00:05:02.656Z,102088.97
2022-07-28T00:07:29.482Z,102095.94
2022-07-28T00:10:00.341Z,102096.59
2022-07-28T00:12:28.049Z,102088.72
2022-07-28T00:14:54.990Z,102087.06
2022-07-28T00:17:21.905Z,102084.09
2022-07-28T00:19:48.702Z,102083.22
2022-07-28T00:22:15.611Z,102077.47
2022-07-28T00:24:42.483Z,102082.84
2022-07-28T00:27:09.319Z,102072.38
2022-07-28T00:29:49.288Z,102075.50
2022-07-28T00:32:18.477Z,102074.06
2022-07-28T00:34:45.356Z,102068.66
2022-07-28T00:37:14.422Z,102077.03
2022-07-28T00:39:42.841Z,102070.38
2022-07-28T00:42:10.521Z,102071.25
2022-07-28T00:44:41.652Z,102071.25
2022-07-28T00:47:08.611Z,102077.66
2022-07-28T00:49:35.494Z,102075.13
2022-07-28T00:52:02.762Z,102069.69
2022-07-28T00:54:29.674Z,102070.56
2022-07-28T00:56:56.524Z,102063.25
2022-07-28T00:59:23.428Z,102066.66
2022-07-28T01:01:50.789Z,102073.75
2022-07-28T01:04:21.310Z,102059.50
2022-07-28T01:06:51.123Z,102064.91
2022-07-28T01:09:30.829Z,102068.81
2022-07-28T01:12:19.633Z,102069.25
2022-07-28T01:15:15.430Z,102071.72
2022-07-28T01:17:52.035Z,102069.72
2022-07-28T01:20:34.680Z,102069.16
2022-07-28T01:23:29.401Z,102065.22
2022-07-28T01:26:30.301Z,102060.47
2022-07-28T01:28:59.946Z,102068.00
2022-07-28T01:31:31.095Z,102069.50
2022-07-28T01:34:05.712Z,102061.38
2022-07-28T01:36:38.290Z,102060.03
2022-07-28T01:39:05.525Z,102063.25
2022-07-28T01:41:34.691Z,102058.72
2022-07-28T01:44:06.586Z,102052.56
2022-07-28T01:46:35.698Z,102052.06
2022-07-28T01:49:03.504Z,102053.09
2022-07-28T01:51:33.476Z,102040.19
2022-07-28T01:54:02.532Z,102041.41
2022-07-28T01:56:33.209Z,102035.22
2022-07-28T01:59:06.328Z,102031.97
2022-07-28T02:01:38.794Z,102030.66
2022-07-28T02:04:08.262Z,102030.28
2022-07-28T02:06:37.256Z,102026.69
2022-07-28T02:09:06.085Z,102025.50
2022-07-28T02:11:41.407Z,102029.41
2022-07-28T02:14:11.877Z,102026.72
2022-07-28T02:16:46.808Z,102024.69
2022-07-28T02:19:15.036Z,102030.53
2022-07-28T02:21:42.990Z,102029.88
2022-07-28T02:24:13.001Z,102024.94
2022-07-28T02:26:47.023Z,102031.72
2022-07-28T02:29:33.405Z,102030.13
2022-07-28T02:32:28.181Z,102027.53
2022-07-28T02:35:09.524Z,102044.00
2022-07-28T02:37:40.071Z,102034.97
2022-07-28T02:40:13.683Z,102041.25
2022-07-28T02:42:41.895Z,102037.53
2022-07-28T02:45:11.744Z,102032.50
2022-07-28T02:47:46.533Z,102037.19
2022-07-28T02:50:15.452Z,102037.66
2022-07-28T02:52:43.950Z,102039.25
2022-07-28T02:55:15.142Z,102041.38
2022-07-28T02:57:44.611Z,102041.69
2022-07-28T03:00:12.438Z,102052.19
2022-07-28T03:02:41.314Z,102041.38
2022-07-28T03:05:11.149Z,102037.31
2022-07-28T03:07:41.238Z,102041.31
2022-07-28T03:10:33.414Z,102043.00
2022-07-28T03:13:02.162Z,102046.13
2022-07-28T03:15:29.351Z,102044.09
2022-07-28T03:17:56.137Z,102034.63
2022-07-28T03:20:23.282Z,102043.59
2022-07-28T03:22:50.114Z,102043.94
2022-07-28T03:25:35.764Z,102040.44
2022-07-28T03:28:08.133Z,102052.06
2022-07-28T03:30:40.737Z,102055.91
2022-07-28T03:33:08.061Z,102049.31
2022-07-28T03:35:38.965Z,102052.59
2022-07-28T03:38:13.547Z,102049.97
2022-07-28T03:40:43.627Z,102051.94
2022-07-28T03:43:14.576Z,102048.53
2022-07-28T03:45:41.800Z,102054.00
2022-07-28T03:48:15.045Z,102062.31
2022-07-28T03:50:42.839Z,102058.16
2022-07-28T03:53:19.082Z,102058.56
2022-07-28T03:55:50.639Z,102061.06
2022-07-28T03:58:26.083Z,102052.50
2022-07-28T04:00:55.900Z,102057.97
2022-07-28T04:03:42.395Z,102058.66
2022-07-28T04:06:09.940Z,102055.59
2022-07-28T04:08:36.808Z,102052.38
2022-07-28T04:11:03.682Z,102060.38
2022-07-28T04:13:32.238Z,102054.56
2022-07-28T04:16:00.170Z,102056.16
2022-07-28T04:18:27.132Z,102054.25
2022-07-28T04:20:55.811Z,102047.84
2022-07-28T04:23:24.048Z,102042.72
2022-07-28T04:25:50.987Z,102046.50
2022-07-28T04:28:17.902Z,102051.19
2022-07-28T04:30:44.863Z,102050.31
2022-07-28T04:33:12.961Z,102047.31
2022-07-28T04:35:39.814Z,102047.69
2022-07-28T04:38:07.752Z,102056.28
2022-07-28T04:40:34.917Z,102053.97
2022-07-28T04:43:03.684Z,102046.06
2022-07-28T04:45:30.932Z,102052.84
2022-07-28T04:47:57.855Z,102051.94
2022-07-28T04:50:24.884Z,102051.81
2022-07-28T04:52:58.892Z,102050.50
2022-07-28T04:55:25.941Z,102066.41
2022-07-28T04:57:52.740Z,102056.97
2022-07-28T05:00:20.071Z,102053.47
2022-07-28T05:02:50.203Z,102054.66
2022-07-28T05:05:17.697Z,102063.94
2022-07-28T05:07:44.637Z,102067.06
2022-07-28T05:10:12.730Z,102050.94
2022-07-28T05:12:39.942Z,102060.56
2022-07-28T05:15:08.461Z,102056.53
2022-07-28T05:17:37.000Z,102064.09
2022-07-28T05:20:05.228Z,102061.31
2022-07-28T05:22:42.517Z,102057.72
2022-07-28T05:25:17.887Z,102055.13
2022-07-28T05:27:45.865Z,102061.31
2022-07-28T05:30:13.759Z,102064.19
2022-07-28T05:32:40.752Z,102066.44
2022-07-28T05:35:08.481Z,102067.16
2022-07-28T05:37:36.831Z,102070.94
2022-07-28T05:40:08.314Z,102073.66
2022-07-28T05:42:38.257Z,102069.44
2022-07-28T05:45:14.976Z,102074.38
2022-07-28T05:47:45.696Z,102077.25
2022-07-28T05:50:14.341Z,102080.84
2022-07-28T05:52:41.406Z,102082.97
2022-07-28T05:55:09.165Z,102084.06
2022-07-28T05:57:37.381Z,102091.09
2022-07-28T06:00:07.943Z,102092.53
2022-07-28T06:02:39.493Z,102103.47
2022-07-28T06:05:06.764Z,102107.41
2022-07-28T06:07:43.490Z,102102.06
2022-07-28T06:10:16.498Z,102109.31
2022-07-28T06:12:49.374Z,102113.22
2022-07-28T06:15:24.345Z,102118.09
2022-07-28T06:17:53.218Z,102117.53
2022-07-28T06:20:24.454Z,102112.41
2022-07-28T06:22:55.288Z,102112.75
2022-07-28T06:25:25.670Z,102115.50
2022-07-28T06:27:55.018Z,102114.81
2022-07-28T06:30:22.764Z,102122.97
2022-07-28T06:32:50.124Z,102115.06
2022-07-28T06:35:17.741Z,102118.28
2022-07-28T06:37:48.290Z,102122.41
2022-07-28T06:40:16.250Z,102121.66
2022-07-28T06:42:44.454Z,102126.22
2022-07-28T06:45:19.663Z,102124.50
2022-07-28T06:47:48.452Z,102123.84
2022-07-28T06:50:24.683Z,102120.06
2022-07-28T06:52:59.033Z,102115.84
2022-07-28T06:55:34.438Z,102120.91
2022-07-28T06:58:05.655Z,102121.56
2022-07-28T07:00:33.115Z,102111.09
2022-07-28T07:03:00.834Z,102121.97
2022-07-28T07:05:32.035Z,102119.44
2022-07-28T07:07:59.485Z,102121.19
2022-07-28T07:10:27.474Z,102111.66
2022-07-28T07:12:54.440Z,102105.91
2022-07-28T07:15:21.323Z,102113.19
2022-07-28T07:17:48.149Z,102112.09
2022-07-28T07:20:17.178Z,102110.13
2022-07-28T07:22:46.245Z,102114.78
2022-07-28T07:25:18.295Z,102117.06
2022-07-28T07:27:46.324Z,102112.16
2022-07-28T07:30:15.207Z,102110.13
2022-07-28T07:32:42.476Z,102107.34
2022-07-28T07:35:09.918Z,102116.91
2022-07-28T07:37:38.086Z,102113.41
2022-07-28T07:40:06.195Z,102111.81
2022-07-28T07:42:33.718Z,102119.81
2022-07-28T07:45:00.675Z,102106.81
2022-07-28T07:47:27.737Z,102113.78
2022-07-28T07:49:54.676Z,102111.06
2022-07-28T07:52:21.659Z,102110.31
2022-07-28T07:54:48.656Z,102104.41
2022-07-28T07:57:15.656Z,102100.31
2022-07-28T07:59:42.510Z,102100.41
2022-07-28T08:02:09.657Z,102104.72
2022-07-28T08:04:37.485Z,102098.66
2022-07-28T08:07:05.872Z,102099.06
2022-07-28T08:09:33.728Z,102100.53
2022-07-28T08:12:00.646Z,102096.28
2022-07-28T08:14:27.727Z,102097.63
2022-07-28T08:16:56.587Z,102097.06
2022-07-28T08:19:24.263Z,102094.56
2022-07-28T08:21:51.427Z,102092.72
2022-07-28T08:24:29.040Z,102098.09
2022-07-28T08:27:02.472Z,102093.63
2022-07-28T08:29:29.566Z,102094.44
2022-07-28T08:31:56.928Z,102088.41
2022-07-28T08:34:26.260Z,102094.16
2022-07-28T08:36:58.832Z,102087.81
2022-07-28T08:39:26.085Z,102087.81
2022-07-28T08:42:05.354Z,102086.50
2022-07-28T08:44:46.949Z,102094.72
2022-07-28T08:47:15.830Z,102090.38
2022-07-28T08:49:43.784Z,102089.66
2022-07-28T08:52:12.814Z,102084.47
2022-07-28T08:54:47.597Z,102080.94
2022-07-28T08:57:21.903Z,102084.53
2022-07-28T08:59:49.995Z,102090.50
2022-07-28T09:02:17.416Z,102086.53
2022-07-28T09:04:46.427Z,102084.53
2022-07-28T09:07:16.081Z,102085.16
2022-07-28T09:09:43.734Z,102084.59
2022-07-28T09:12:11.103Z,102088.84
2022-07-28T09:14:38.140Z,102088.09
2022-07-28T09:17:05.575Z,102092.31
2022-07-28T09:19:34.349Z,102081.53
2022-07-28T09:22:03.519Z,102084.06
2022-07-28T09:24:41.950Z,102083.47
2022-07-28T09:27:11.946Z,102080.31
2022-07-28T09:29:40.929Z,102082.72
2022-07-28T09:32:08.722Z,102078.66
2022-07-28T09:34:47.800Z,102085.03
2022-07-28T09:37:27.762Z,102090.25
2022-07-28T09:40:00.254Z,102085.97
2022-07-28T09:42:46.146Z,102080.13
2022-07-28T09:45:22.866Z,102085.28
2022-07-28T09:48:09.814Z,102081.91
2022-07-28T09:50:38.217Z,102082.09
2022-07-28T09:53:28.518Z,102090.63
2022-07-28T09:56:00.680Z,102077.47
2022-07-28T09:58:30.465Z,102079.81
2022-07-28T10:01:13.075Z,102079.88
2022-07-28T10:03:42.827Z,102083.81
2022-07-28T10:06:26.906Z,102088.84
2022-07-28T10:08:56.000Z,102075.72
2022-07-28T10:11:26.787Z,102076.69
2022-07-28T10:14:00.679Z,102078.22
2022-07-28T10:16:36.065Z,102072.19
2022-07-28T10:19:05.545Z,102076.53
2022-07-28T10:21:36.176Z,102069.81
2022-07-28T10:24:06.354Z,102072.38
2022-07-28T10:26:39.355Z,102061.28
2022-07-28T10:29:09.512Z,102070.06
2022-07-28T10:31:54.199Z,102062.81
2022-07-28T10:34:31.523Z,102065.03
2022-07-28T10:37:02.093Z,102066.63
2022-07-28T10:39:33.044Z,102064.28
2022-07-28T10:42:00.833Z,102062.19
2022-07-28T10:44:28.303Z,102056.56
2022-07-28T10:46:57.002Z,102055.63
2022-07-28T10:49:27.606Z,102051.59
2022-07-28T10:52:04.981Z,102050.25
2022-07-28T10:55:01.501Z,102050.00
2022-07-28T10:57:31.498Z,102049.66
2022-07-28T11:00:13.113Z,102052.66
2022-07-28T11:02:57.751Z,102049.06
2022-07-28T11:05:39.269Z,102050.00
2022-07-28T11:08:27.852Z,102056.25
2022-07-28T11:11:09.263Z,102059.81
2022-07-28T11:13:41.278Z,102053.69
2022-07-28T11:16:14.626Z,102056.91
2022-07-28T11:19:08.082Z,102065.41
2022-07-28T11:22:16.073Z,102059.81
2022-07-28T11:24:58.025Z,102057.03
2022-07-28T11:27:40.311Z,102060.47
2022-07-28T11:30:11.730Z,102059.84
2022-07-28T11:32:50.675Z,102053.84
2022-07-28T11:35:19.664Z,102056.84
2022-07-28T11:38:01.861Z,102054.06
2022-07-28T11:40:35.434Z,102049.44
2022-07-28T11:43:22.089Z,102056.31
2022-07-28T11:46:14.753Z,102053.69
2022-07-28T11:48:47.432Z,102051.59
2022-07-28T11:51:15.901Z,102053.25
2022-07-28T11:53:44.125Z,102054.88
2022-07-28T11:56:23.064Z,102041.06
2022-07-28T11:59:00.656Z,102039.06
2022-07-28T12:01:27.580Z,102050.78
2022-07-28T12:04:00.198Z,102048.88
2022-07-28T12:06:40.297Z,102050.75
2022-07-28T12:09:09.239Z,102048.53
2022-07-28T12:11:41.592Z,102042.31
2022-07-28T12:14:10.735Z,102043.31
2022-07-28T12:16:39.947Z,102044.66
2022-07-28T12:19:08.869Z,102046.03
2022-07-28T12:21:51.005Z,102036.84
2022-07-28T12:24:28.279Z,102033.75
2022-07-28T12:27:00.562Z,102030.03
2022-07-28T12:29:35.963Z,102037.84
2022-07-28T12:32:05.576Z,102037.72
2022-07-28T12:34:39.803Z,102034.03
2022-07-28T12:37:12.263Z,102042.81
2022-07-28T12:39:42.311Z,102041.13
2022-07-28T12:42:11.491Z,102029.16
2022-07-28T12:44:40.907Z,102032.94
2022-07-28T12:47:11.839Z,102033.41
2022-07-28T12:49:40.839Z,102025.47
2022-07-28T12:52:22.640Z,102025.72
2022-07-28T12:54:55.395Z,102025.06
2022-07-28T12:57:48.761Z,102020.91
2022-07-28T13:00:19.661Z,102022.97
2022-07-28T13:02:48.176Z,102016.53
2022-07-28T13:05:53.768Z,102023.63
2022-07-28T13:08:21.640Z,102020.19
2022-07-28T13:10:55.596Z,102018.75
2022-07-28T13:13:25.773Z,102013.31
2022-07-28T13:16:13.060Z,102017.41
2022-07-28T13:18:44.748Z,102024.91
2022-07-28T13:21:12.213Z,102019.84
2022-07-28T13:23:39.619Z,102022.97
2022-07-28T13:26:07.717Z,102021.13
2022-07-28T13:28:34.990Z,102013.84
2022-07-28T13:31:02.157Z,102011.28
2022-07-28T13:33:29.409Z,102002.88
2022-07-28T13:35:57.094Z,102008.41
2022-07-28T13:38:27.241Z,102010.81
2022-07-28T13:40:56.677Z,102015.69
2022-07-28T13:43:36.170Z,101999.97
2022-07-28T13:46:03.986Z,102004.94
2022-07-28T13:48:32.939Z,101999.41
2022-07-28T13:51:00.539Z,101991.25
2022-07-28T13:53:27.372Z,102001.94
2022-07-28T13:55:57.285Z,101986.56
2022-07-28T13:58:24.264Z,101989.88
2022-07-28T14:00:51.372Z,101988.53
2022-07-28T14:03:18.291Z,101993.16
2022-07-28T14:05:45.215Z,101995.41
2022-07-28T14:08:18.689Z,101995.50
2022-07-28T14:10:48.296Z,101986.50
2022-07-28T14:13:15.528Z,101990.16
2022-07-28T14:15:42.399Z,101980.34
2022-07-28T14:18:09.370Z,101977.59
2022-07-28T14:20:36.304Z,101980.41
2022-07-28T14:23:03.350Z,101973.19
2022-07-28T14:25:47.972Z,101979.34
2022-07-28T14:28:15.975Z,101978.72
2022-07-28T14:30:43.283Z,101968.59
2022-07-28T14:33:10.086Z,101975.16
2022-07-28T14:35:36.942Z,101975.81
2022-07-28T14:38:42.476Z,101971.75
2022-07-28T14:40:52.469Z,101975.59
2022-07-28T14:43:20.105Z,101967.63
2022-07-28T14:45:51.973Z,101976.88
2022-07-28T14:48:34.769Z,101969.09
2022-07-28T14:51:01.756Z,101965.38
2022-07-28T14:53:28.580Z,101961.91
2022-07-28T14:55:55.461Z,101960.59
2022-07-28T14:58:22.431Z,101959.72
2022-07-28T15:00:49.268Z,101950.47
2022-07-28T15:03:17.023Z,101959.75
2022-07-28T15:05:43.976Z,101950.41
2022-07-28T15:08:10.795Z,101953.03
2022-07-28T15:10:37.746Z,101949.44
2022-07-28T15:13:04.574Z,101956.50
2022-07-28T15:15:31.503Z,101959.81
2022-07-28T15:17:58.541Z,101960.53
2022-07-28T15:20:25.415Z,101955.41
2022-07-28T15:22:52.334Z,101953.31
2022-07-28T15:25:21.952Z,101940.53
2022-07-28T15:27:48.772Z,101941.69
2022-07-28T15:30:15.658Z,101943.28
2022-07-28T15:32:56.071Z,101943.66
2022-07-28T15:35:25.062Z,101945.00
2022-07-28T15:37:51.962Z,101934.72
2022-07-28T15:40:18.926Z,101943.34
2022-07-28T15:42:45.793Z,101939.19
2022-07-28T15:45:12.725Z,101943.25
2022-07-28T15:47:40.025Z,101937.97
2022-07-28T15:50:07.010Z,101929.91
2022-07-28T15:52:33.844Z,101935.69
2022-07-28T15:55:00.629Z,101920.63
2022-07-28T15:57:27.501Z,101925.50
2022-07-28T16:00:06.083Z,101922.22
2022-07-28T16:02:33.014Z,101929.38
2022-07-28T16:05:01.129Z,101923.13
2022-07-28T16:07:29.477Z,101923.75
2022-07-28T16:09:56.964Z,101924.09
2022-07-28T16:12:27.590Z,101925.88
2022-07-28T16:14:54.486Z,101922.47
2022-07-28T16:17:22.560Z,101916.88
2022-07-28T16:19:51.239Z,101917.69
2022-07-28T16:22:19.559Z,101922.09
2022-07-28T16:24:47.368Z,101912.75
2022-07-28T16:27:14.845Z,101926.34
2022-07-28T16:29:42.302Z,101920.63
2022-07-28T16:32:10.032Z,101925.50
2022-07-28T16:34:37.166Z,101933.44
2022-07-28T16:37:05.608Z,101920.84
2022-07-28T16:39:34.367Z,101928.22
2022-07-28T16:42:02.686Z,101929.69
2022-07-28T16:44:29.755Z,101922.38
2022-07-28T16:46:56.897Z,101916.94
2022-07-28T16:49:24.558Z,101925.31
2022-07-28T16:51:51.554Z,101922.31
2022-07-28T16:54:18.868Z,101925.38
2022-07-28T16:56:46.075Z,101918.19
2022-07-28T16:59:12.923Z,101919.59
2022-07-28T17:01:45.146Z,101929.03
2022-07-28T17:04:16.568Z,101925.38
2022-07-28T17:06:43.954Z,101924.88
2022-07-28T17:09:11.430Z,101934.69
2022-07-28T17:11:38.607Z,101932.09
2022-07-28T17:14:05.624Z,101930.63
2022-07-28T17:16:32.516Z,101931.34
2022-07-28T17:18:59.749Z,101928.38
2022-07-28T17:21:27.113Z,101927.25
2022-07-28T17:23:54.107Z,101937.13
2022-07-28T17:29:08.904Z,101922.94
2022-07-28T17:31:36.491Z,101930.22
2022-07-28T17:34:03.478Z,101935.13
2022-07-28T17:36:34.051Z,101925.59
2022-07-28T17:39:01.441Z,101926.78
2022-07-28T17:41:28.304Z,101929.78
2022-07-28T17:43:55.280Z,101931.06
2022-07-28T17:46:22.220Z,101930.41
2022-07-28T17:48:53.759Z,101927.34
2022-07-28T17:51:20.752Z,101933.97
2022-07-28T17:53:48.765Z,101927.34
2022-07-28T17:56:17.190Z,101924.91
2022-07-28T17:58:45.359Z,101928.56
2022-07-28T18:01:15.213Z,101925.69
2022-07-28T18:03:57.907Z,101921.16
2022-07-28T18:06:33.457Z,101924.84
2022-07-28T18:09:09.869Z,101926.47
2022-07-28T18:11:56.546Z,101937.91
2022-07-28T18:14:27.202Z,101933.00
2022-07-28T18:16:57.781Z,101936.69
2022-07-28T18:19:25.461Z,101933.38
2022-07-28T18:21:52.366Z,101931.38
2022-07-28T18:24:21.923Z,101934.59
2022-07-28T18:26:53.679Z,101932.22
2022-07-28T18:29:21.672Z,101930.63
2022-07-28T18:31:52.787Z,101935.38
2022-07-28T18:34:25.040Z,101942.03
2022-07-28T18:36:55.871Z,101940.78
2022-07-28T18:39:22.799Z,101939.75
2022-07-28T18:41:49.677Z,101941.88
2022-07-28T18:44:17.894Z,101935.63
2022-07-28T18:46:45.321Z,101942.13
2022-07-28T18:49:12.381Z,101930.81
2022-07-28T18:51:39.281Z,101937.06
2022-07-28T18:54:11.024Z,101932.16
2022-07-28T18:56:37.860Z,101938.47
2022-07-28T18:59:04.717Z,101933.94
2022-07-28T19:01:31.620Z,101935.66
2022-07-28T19:03:58.486Z,101939.31
2022-07-28T19:06:25.291Z,101930.66
2022-07-28T19:08:52.339Z,101934.38
2022-07-28T19:11:20.164Z,101936.09
2022-07-28T19:13:48.362Z,101937.06
2022-07-28T19:16:15.332Z,101939.03
2022-07-28T19:18:42.272Z,101944.94
2022-07-28T19:21:09.173Z,101942.28
2022-07-28T19:23:36.000Z,101937.78
2022-07-28T19:26:03.821Z,101937.38
2022-07-28T19:28:30.693Z,101942.28
2022-07-28T19:30:58.671Z,101946.91
2022-07-28T19:33:26.154Z,101940.97
2022-07-28T19:35:53.000Z,101953.22
2022-07-28T19:38:20.248Z,101952.50
2022-07-28T19:40:47.323Z,101964.09
2022-07-28T19:43:14.178Z,101958.22
2022-07-28T19:45:41.194Z,101971.44
2022-07-28T19:48:08.471Z,101962.16
2022-07-28T19:50:36.329Z,101962.94
2022-07-28T19:53:03.503Z,101972.56
2022-07-28T19:55:35.028Z,101969.03
2022-07-28T19:58:03.531Z,101966.50
2022-07-28T20:00:30.415Z,101967.38
2022-07-28T20:02:57.445Z,101967.78
2022-07-28T20:05:24.421Z,101963.63
2022-07-28T20:07:51.235Z,101967.31
2022-07-28T20:10:18.235Z,101963.63
2022-07-28T20:12:45.722Z,101970.00
2022-07-28T20:15:12.995Z,101969.66
2022-07-28T20:17:40.438Z,101969.03
2022-07-28T20:20:09.766Z,101973.16
2022-07-28T20:22:39.142Z,101978.38
2022-07-28T20:25:09.720Z,101976.84
2022-07-28T20:27:40.198Z,101980.97
2022-07-28T20:30:12.281Z,101973.97
2022-07-28T20:32:40.547Z,101985.28
2022-07-28T20:35:08.672Z,101982.78
2022-07-28T20:37:37.451Z,101983.47
2022-07-28T20:40:09.611Z,101987.00
2022-07-28T20:42:36.930Z,101990.66
2022-07-28T20:45:04.776Z,101987.00
2022-07-28T20:47:33.082Z,101991.03
2022-07-28T20:50:00.861Z,101994.09
2022-07-28T20:52:28.202Z,101991.66
2022-07-28T20:54:55.426Z,101992.00
2022-07-28T20:57:23.144Z,101991.94
2022-07-28T20:59:52.072Z,101996.06
2022-07-28T21:02:22.936Z,101997.69
2022-07-28T21:04:50.876Z,102001.44
2022-07-28T21:08:04.449Z,101999.66
2022-07-28T21:10:07.194Z,102002.25
2022-07-28T21:12:34.537Z,102002.28
2022-07-28T21:15:02.130Z,101997.84
2022-07-28T21:17:29.061Z,102005.13
2022-07-28T21:19:55.885Z,102001.44
2022-07-28T21:22:23.255Z,102006.84
2022-07-28T21:24:55.445Z,101997.41
2022-07-28T21:27:23.190Z,102002.00
2022-07-28T21:32:17.841Z,102005.28
2022-07-28T21:34:44.714Z,102009.72
2022-07-28T21:37:12.853Z,102005.94
2022-07-28T21:39:40.393Z,102003.59
2022-07-28T21:42:08.844Z,102006.13
2022-07-28T21:44:39.317Z,101997.50
2022-07-28T21:47:06.281Z,102002.09
2022-07-28T21:49:33.301Z,102004.13
2022-07-28T21:52:00.223Z,102007.00
2022-07-28T21:54:27.336Z,102007.00
2022-07-28T21:56:54.323Z,102005.94
2022-07-28T21:59:21.174Z,102007.34
2022-07-28T22:01:48.162Z,102006.97
2022-07-28T22:04:15.530Z,102007.72
2022-07-28T22:06:45.951Z,102003.59
2022-07-28T22:09:14.433Z,102005.75
2022-07-28T22:11:41.410Z,102011.66
2022-07-28T22:14:08.538Z,102007.81
2022-07-28T22:16:35.501Z,102001.88
2022-07-28T22:19:02.829Z,102004.97
2022-07-28T22:21:29.853Z,102008.34
2022-07-28T22:23:56.758Z,102002.25
2022-07-28T22:26:23.618Z,102007.81
2022-07-28T22:28:50.422Z,102001.72
2022-07-28T22:31:17.293Z,102000.19
2022-07-28T22:33:44.187Z,102006.84
2022-07-28T22:36:11.103Z,102000.81
2022-07-28T22:38:37.947Z,101997.75
2022-07-28T22:41:04.920Z,102003.41
2022-07-28T22:43:33.525Z,102001.44
2022-07-28T22:46:00.946Z,101999.53
2022-07-28T22:48:27.965Z,102002.63
2022-07-28T22:50:55.241Z,102014.19
2022-07-28T22:53:22.121Z,102017.16
2022-07-28T22:58:33.149Z,102006.38
2022-07-28T23:01:00.073Z,102009.44
2022-07-28T23:03:29.584Z,102015.09
2022-07-28T23:06:01.973Z,102014.19
2022-07-28T23:08:29.206Z,102009.34
2022-07-28T23:10:56.078Z,102007.91
2022-07-28T23:13:22.958Z,102004.75
2022-07-28T23:15:50.518Z,102003.78
2022-07-28T23:18:17.561Z,102000.09
2022-07-28T23:20:45.097Z,102000.66
2022-07-28T23:23:12.451Z,101998.03
2022-07-28T23:25:42.743Z,101999.09
2022-07-28T23:28:10.509Z,101992.28
2022-07-28T23:30:37.691Z,101998.16
2022-07-28T23:33:05.540Z,101990.28
2022-07-28T23:35:32.592Z,101991.13
2022-07-28T23:37:59.562Z,102000.00
2022-07-28T23:40:26.592Z,101989.31
2022-07-28T23:42:53.484Z,102000.09
2022-07-28T23:45:20.346Z,101996.78
2022-07-28T23:47:47.212Z,101998.16
2022-07-28T23:50:14.115Z,101993.31
2022-07-28T23:52:40.949Z,101990.25
2022-07-28T23:55:08.563Z,101992.19
2022-07-28T23:57:35.489Z,101994.63
